Time;durP1;ratioP1;P1;durP2;ratioP2;P2;SDS_P1;SDS_P2;PMS_P1;PMS_P2;Temp;Humidity;BMP_temperature;BMP_pressure;BME280_temperature;BME280_humidity;BME280_pressure;Samples;Min_cycle;Max_cycle;Signal;HPM_P1;HPM_P2
2022/09/15 00:01:19;;;;;;;31.47;16.00;;;;;;;;;;5043703;28;20391;-45
2022/09/15 00:03:45;;;;;;;35.10;15.17;;;;;;;;;;5042941;28;20416;-44
2022/09/15 00:06:11;;;;;;;28.00;14.87;;;;;;;;;;5041738;28;20994;-44
2022/09/15 00:08:38;;;;;;;28.97;16.77;;;;;;;;;;5050023;28;20907;-44
2022/09/15 00:11:06;;;;;;;32.07;16.67;;;;;;;;;;5047732;28;20420;-47
2022/09/15 00:13:33;;;;;;;28.97;16.07;;;;;;;;;;5033865;28;20797;-47
2022/09/15 00:15:59;;;;;;;27.37;15.20;;;;;;;;;;5039233;28;20460;-45
2022/09/15 00:18:25;;;;;;;29.37;15.10;;;;;;;;;;5053850;28;20470;-45
2022/09/15 00:20:52;;;;;;;32.80;16.87;;;;;;;;;;5049146;28;20422;-45
2022/09/15 00:23:18;;;;;;;31.03;16.17;;;;;;;;;;5033865;28;20472;-44
2022/09/15 00:25:45;;;;;;;30.33;16.80;;;;;;;;;;5036884;28;20438;-45
2022/09/15 00:28:12;;;;;;;29.80;16.43;;;;;;;;;;5053628;28;20386;-45
2022/09/15 00:30:43;;;;;;;28.90;15.53;;;;;;;;;;5051158;28;20427;-45
2022/09/15 00:33:09;;;;;;;30.47;15.77;;;;;;;;;;5033662;28;20406;-45
2022/09/15 00:35:37;;;;;;;31.23;17.37;;;;;;;;;;5034954;28;20882;-46
2022/09/15 00:38:04;;;;;;;30.20;18.23;;;;;;;;;;5053571;28;20403;-44
2022/09/15 00:40:32;;;;;;;28.60;16.30;;;;;;;;;;5052153;28;20421;-45
2022/09/15 00:42:58;;;;;;;35.30;17.10;;;;;;;;;;5033553;28;20446;-45
2022/09/15 00:45:26;;;;;;;32.17;17.27;;;;;;;;;;5033050;28;20412;-46
2022/09/15 00:47:52;;;;;;;26.73;16.20;;;;;;;;;;5041932;28;20822;-44
2022/09/15 00:50:20;;;;;;;31.87;17.80;;;;;;;;;;5037064;28;20481;-44
2022/09/15 00:52:51;;;;;;;33.03;16.93;;;;;;;;;;5033516;28;20401;-45
2022/09/15 00:55:18;;;;;;;30.73;15.50;;;;;;;;;;5032462;28;20449;-45
2022/09/15 00:57:50;;;;;;;34.60;17.73;;;;;;;;;;5050559;28;20576;-44
2022/09/15 01:00:18;;;;;;;29.30;16.37;;;;;;;;;;5053271;28;20394;-44
2022/09/15 01:02:46;;;;;;;28.07;18.87;;;;;;;;;;5040578;28;20430;-45
2022/09/15 01:05:13;;;;;;;31.07;17.33;;;;;;;;;;5051729;28;20408;-47
2022/09/15 01:07:49;;;;;;;33.93;17.10;;;;;;;;;;5035437;28;20531;-45
2022/09/15 01:10:35;;;;;;;30.27;16.37;;;;;;;;;;5033107;28;20415;-44
2022/09/15 01:13:03;;;;;;;27.70;16.47;;;;;;;;;;5051325;28;20452;-45
2022/09/15 01:15:38;;;;;;;32.87;17.67;;;;;;;;;;5052227;28;20445;-45
2022/09/15 01:18:29;;;;;;;30.50;16.57;;;;;;;;;;5033803;28;20423;-44
2022/09/15 01:20:55;;;;;;;39.33;18.90;;;;;;;;;;5033489;28;20393;-46
2022/09/15 01:23:37;;;;;;;32.17;16.03;;;;;;;;;;5052338;28;20918;-47
2022/09/15 01:26:03;;;;;;;30.20;16.97;;;;;;;;;;5032154;28;20577;-47
2022/09/15 01:28:35;;;;;;;28.23;17.20;;;;;;;;;;5032234;28;21027;-48
2022/09/15 01:31:11;;;;;;;27.40;15.13;;;;;;;;;;5051365;28;20425;-47
2022/09/15 01:33:42;;;;;;;30.53;16.77;;;;;;;;;;5052523;28;20398;-44
2022/09/15 01:36:12;;;;;;;28.13;16.03;;;;;;;;;;5031773;28;20817;-44
2022/09/15 01:38:56;;;;;;;28.13;16.10;;;;;;;;;;5032436;28;20412;-45
2022/09/15 01:41:48;;;;;;;65.13;18.77;;;;;;;;;;5032507;28;20407;-44
2022/09/15 01:44:35;;;;;;;33.73;17.43;;;;;;;;;;5033920;28;20418;-49
2022/09/15 01:47:03;;;;;;;30.97;17.50;;;;;;;;;;5051761;28;20428;-45
2022/09/15 01:49:34;;;;;;;28.10;15.83;;;;;;;;;;5044793;28;20505;-45
2022/09/15 01:52:00;;;;;;;29.73;16.57;;;;;;;;;;5031326;28;20415;-44
2022/09/15 01:54:29;;;;;;;31.87;15.27;;;;;;;;;;5036468;28;20452;-44
2022/09/15 01:56:56;;;;;;;30.47;17.43;;;;;;;;;;5046636;28;20461;-48
2022/09/15 01:59:23;;;;;;;39.90;18.03;;;;;;;;;;5031976;28;20929;-45
2022/09/15 02:02:02;;;;;;;33.00;16.90;;;;;;;;;;5033383;28;20427;-48
2022/09/15 02:04:37;;;;;;;34.80;19.07;;;;;;;;;;5050523;28;20452;-45
2022/09/15 02:07:10;;;;;;;130.10;20.50;;;;;;;;;;5046392;28;20874;-47
2022/09/15 02:10:02;;;;;;;33.10;18.87;;;;;;;;;;5031842;28;20465;-47
2022/09/15 02:12:37;;;;;;;36.67;17.67;;;;;;;;;;5039166;28;20422;-47
2022/09/15 02:15:08;;;;;;;29.70;16.13;;;;;;;;;;5050842;28;20454;-48
2022/09/15 02:17:37;;;;;;;38.93;17.23;;;;;;;;;;5043687;28;20535;-47
2022/09/15 02:20:31;;;;;;;31.80;16.67;;;;;;;;;;5031467;28;20400;-47
2022/09/15 02:23:04;;;;;;;35.83;17.73;;;;;;;;;;5037501;28;20783;-47
2022/09/15 02:25:33;;;;;;;32.10;16.77;;;;;;;;;;5030955;28;20422;-47
2022/09/15 02:28:02;;;;;;;32.13;15.90;;;;;;;;;;5041701;28;20486;-47
2022/09/15 02:30:30;;;;;;;37.00;18.03;;;;;;;;;;5051725;28;20409;-47
2022/09/15 02:32:59;;;;;;;30.43;16.20;;;;;;;;;;5042511;28;20930;-47
2022/09/15 02:35:27;;;;;;;36.50;20.20;;;;;;;;;;5013206;28;20543;-47
2022/09/15 02:37:54;;;;;;;31.90;17.40;;;;;;;;;;5039333;28;20512;-47
2022/09/15 02:40:22;;;;;;;31.17;17.77;;;;;;;;;;5051557;28;20940;-47
2022/09/15 02:42:55;;;;;;;35.50;17.97;;;;;;;;;;5043929;28;20810;-47
2022/09/15 02:45:21;;;;;;;33.23;19.53;;;;;;;;;;5030638;28;20406;-47
2022/09/15 02:47:49;;;;;;;33.83;17.40;;;;;;;;;;5037888;28;20447;-47
2022/09/15 02:50:15;;;;;;;32.00;15.80;;;;;;;;;;5051527;28;20411;-47
2022/09/15 02:52:41;;;;;;;34.20;17.63;;;;;;;;;;5045297;28;20450;-47
2022/09/15 02:55:07;;;;;;;34.97;17.87;;;;;;;;;;5030642;28;21003;-47
2022/09/15 02:57:33;;;;;;;34.33;16.97;;;;;;;;;;5035414;28;20441;-47
2022/09/15 03:00:12;;;;;;;33.53;17.77;;;;;;;;;;5051390;28;20408;-47
2022/09/15 03:02:38;;;;;;;28.60;15.50;;;;;;;;;;5045554;28;20426;-47
2022/09/15 03:05:04;;;;;;;25.87;15.33;;;;;;;;;;5030791;28;20406;-47
2022/09/15 03:07:30;;;;;;;24.37;15.73;;;;;;;;;;5034891;28;20439;-48
2022/09/15 03:09:57;;;;;;;34.23;19.03;;;;;;;;;;5051094;28;20440;-47
2022/09/15 03:12:23;;;;;;;27.03;16.27;;;;;;;;;;5049313;28;20425;-47
2022/09/15 03:14:49;;;;;;;28.63;15.80;;;;;;;;;;5044238;28;20417;-47
2022/09/15 03:17:15;;;;;;;30.30;16.27;;;;;;;;;;5034437;28;20503;-47
2022/09/15 03:19:41;;;;;;;30.13;16.13;;;;;;;;;;5050959;28;20405;-47
2022/09/15 03:22:09;;;;;;;29.00;16.07;;;;;;;;;;5047939;28;20427;-48
2022/09/15 03:24:35;;;;;;;28.77;16.70;;;;;;;;;;5031152;28;20547;-48
2022/09/15 03:27:01;;;;;;;25.90;16.00;;;;;;;;;;5031824;28;20458;-47
2022/09/15 03:29:27;;;;;;;29.53;16.37;;;;;;;;;;5051319;28;20441;-48
2022/09/15 03:31:53;;;;;;;30.13;16.03;;;;;;;;;;5053006;28;20414;-47
2022/09/15 03:34:19;;;;;;;30.97;16.40;;;;;;;;;;5053765;28;20521;-48
2022/09/15 03:36:45;;;;;;;27.87;16.00;;;;;;;;;;5053813;28;21034;-47
2022/09/15 03:39:11;;;;;;;28.23;15.80;;;;;;;;;;5035169;28;20465;-47
2022/09/15 03:41:38;;;;;;;28.53;15.80;;;;;;;;;;5034779;28;20404;-45
2022/09/15 03:44:04;;;;;;;34.73;18.83;;;;;;;;;;5050286;28;20921;-44
2022/09/15 03:46:30;;;;;;;39.73;18.97;;;;;;;;;;5033933;28;20465;-44
2022/09/15 03:48:56;;;;;;;34.83;17.97;;;;;;;;;;5051146;28;20454;-45
2022/09/15 03:51:23;;;;;;;37.60;17.80;;;;;;;;;;5054324;28;20893;-47
2022/09/15 03:53:49;;;;;;;32.53;17.00;;;;;;;;;;5039053;28;20437;-45
2022/09/15 03:56:21;;;;;;;30.47;17.10;;;;;;;;;;5033717;28;20519;-44
2022/09/15 03:58:47;;;;;;;27.30;16.27;;;;;;;;;;5048267;28;20418;-45
2022/09/15 04:01:13;;;;;;;32.30;16.70;;;;;;;;;;5054263;28;20405;-46
2022/09/15 04:03:39;;;;;;;30.67;18.53;;;;;;;;;;5040432;28;20946;-45
2022/09/15 04:06:05;;;;;;;34.67;16.43;;;;;;;;;;5033528;28;20420;-45
2022/09/15 04:08:31;;;;;;;34.90;17.43;;;;;;;;;;5045754;28;20421;-44
2022/09/15 04:10:59;;;;;;;34.40;16.67;;;;;;;;;;5054446;28;20410;-45
2022/09/15 04:13:25;;;;;;;33.60;16.80;;;;;;;;;;5042308;28;20472;-45
2022/09/15 04:15:59;;;;;;;28.00;16.17;;;;;;;;;;5033431;28;20819;-44
2022/09/15 04:18:25;;;;;;;28.77;15.77;;;;;;;;;;5044306;28;20545;-45
2022/09/15 04:20:51;;;;;;;33.17;18.17;;;;;;;;;;5053911;28;20560;-45
2022/09/15 04:23:17;;;;;;;30.20;17.77;;;;;;;;;;5043284;28;20419;-45
2022/09/15 04:25:43;;;;;;;35.60;18.13;;;;;;;;;;5033370;28;20851;-45
2022/09/15 04:28:09;;;;;;;36.97;17.77;;;;;;;;;;5041845;28;20826;-44
2022/09/15 04:30:35;;;;;;;32.17;18.27;;;;;;;;;;5054276;28;20415;-44
2022/09/15 04:33:01;;;;;;;34.40;19.40;;;;;;;;;;5045221;28;20423;-45
2022/09/15 04:35:27;;;;;;;32.37;17.37;;;;;;;;;;5032831;28;20439;-47
2022/09/15 04:37:54;;;;;;;27.57;16.77;;;;;;;;;;5039672;28;20455;-46
2022/09/15 04:40:20;;;;;;;31.70;19.70;;;;;;;;;;5053739;28;20482;-46
2022/09/15 04:42:46;;;;;;;29.33;18.23;;;;;;;;;;5046711;28;20854;-46
2022/09/15 04:45:12;;;;;;;30.07;17.47;;;;;;;;;;5032970;28;20935;-47
2022/09/15 04:47:38;;;;;;;35.13;18.03;;;;;;;;;;5034128;28;21717;-47
2022/09/15 04:50:05;;;;;;;30.07;17.70;;;;;;;;;;5044482;28;20447;-46
2022/09/15 04:52:30;;;;;;;39.37;18.30;;;;;;;;;;5033456;28;20415;-46
2022/09/15 04:54:56;;;;;;;33.53;18.20;;;;;;;;;;5032599;28;20502;-47
2022/09/15 04:57:22;;;;;;;38.27;19.77;;;;;;;;;;5033135;28;20439;-47
2022/09/15 04:59:48;;;;;;;39.83;18.47;;;;;;;;;;5033138;28;20408;-47
2022/09/15 05:02:14;;;;;;;44.33;19.40;;;;;;;;;;5032994;28;20399;-47
2022/09/15 05:04:40;;;;;;;41.20;19.37;;;;;;;;;;5051039;28;20769;-47
2022/09/15 05:07:06;;;;;;;34.73;18.80;;;;;;;;;;5052616;28;20428;-46
2022/09/15 05:09:33;;;;;;;32.53;18.60;;;;;;;;;;5034803;28;21069;-46
2022/09/15 05:11:59;;;;;;;29.33;17.37;;;;;;;;;;5033130;28;20896;-46
2022/09/15 05:14:25;;;;;;;35.40;19.00;;;;;;;;;;5048569;28;20417;-46
2022/09/15 05:16:51;;;;;;;31.57;18.80;;;;;;;;;;5052261;28;20995;-46
2022/09/15 05:19:17;;;;;;;30.47;19.23;;;;;;;;;;5037012;28;20459;-47
2022/09/15 05:21:43;;;;;;;37.70;18.70;;;;;;;;;;5032932;28;20431;-48
2022/09/15 05:24:09;;;;;;;37.00;18.60;;;;;;;;;;5046234;28;20390;-47
2022/09/15 05:26:35;;;;;;;31.60;17.73;;;;;;;;;;5052286;28;20441;-46
2022/09/15 05:29:01;;;;;;;32.10;18.87;;;;;;;;;;5039252;28;20450;-48
2022/09/15 05:31:32;;;;;;;32.53;16.73;;;;;;;;;;5032572;28;20455;-47
2022/09/15 05:33:59;;;;;;;28.40;16.97;;;;;;;;;;5044389;28;20756;-47
2022/09/15 05:36:25;;;;;;;31.40;19.13;;;;;;;;;;5052078;28;20469;-46
2022/09/15 05:38:57;;;;;;;34.10;18.50;;;;;;;;;;5040788;28;20411;-48
2022/09/15 05:41:24;;;;;;;41.67;18.20;;;;;;;;;;5032531;28;20805;-46
2022/09/15 05:43:50;;;;;;;30.57;18.30;;;;;;;;;;5042703;28;20426;-47
2022/09/15 05:46:17;;;;;;;30.80;17.63;;;;;;;;;;5051618;28;20459;-47
2022/09/15 05:48:43;;;;;;;32.27;17.70;;;;;;;;;;5050278;28;20423;-47
2022/09/15 05:51:10;;;;;;;31.60;17.80;;;;;;;;;;5052213;28;20415;-48
2022/09/15 05:53:36;;;;;;;34.77;18.37;;;;;;;;;;5043702;28;20429;-51
2022/09/15 05:56:04;;;;;;;31.80;17.03;;;;;;;;;;5031602;28;20438;-48
2022/09/15 05:58:30;;;;;;;27.87;18.13;;;;;;;;;;5034332;28;20433;-50
2022/09/15 06:00:56;;;;;;;33.27;15.83;;;;;;;;;;5052398;28;20429;-50
2022/09/15 06:03:23;;;;;;;33.93;18.67;;;;;;;;;;5046188;28;20481;-46
2022/09/15 06:05:49;;;;;;;30.33;17.10;;;;;;;;;;5031710;28;20982;-47
2022/09/15 06:08:15;;;;;;;30.10;16.33;;;;;;;;;;5037217;28;20986;-48
2022/09/15 06:10:42;;;;;;;33.30;16.80;;;;;;;;;;5051858;28;20413;-48
2022/09/15 06:13:08;;;;;;;31.00;17.40;;;;;;;;;;5047808;28;20968;-47
2022/09/15 06:15:34;;;;;;;32.30;16.77;;;;;;;;;;5031465;28;20491;-47
2022/09/15 06:18:00;;;;;;;38.00;16.27;;;;;;;;;;5034704;28;20412;-46
2022/09/15 06:20:26;;;;;;;26.90;16.27;;;;;;;;;;5051264;28;20500;-47
2022/09/15 06:22:56;;;;;;;26.73;16.83;;;;;;;;;;5050209;28;20467;-47
2022/09/15 06:25:22;;;;;;;29.80;17.43;;;;;;;;;;5031242;28;20790;-47
2022/09/15 06:27:50;;;;;;;24.47;16.73;;;;;;;;;;5032375;28;20456;-47
2022/09/15 06:30:16;;;;;;;25.73;16.30;;;;;;;;;;5051590;28;20459;-48
2022/09/15 06:32:42;;;;;;;24.40;16.80;;;;;;;;;;5051457;28;20382;-48
2022/09/15 06:35:08;;;;;;;31.00;17.53;;;;;;;;;;5031224;28;20428;-48
2022/09/15 06:37:34;;;;;;;35.60;17.97;;;;;;;;;;5031487;28;20797;-47
2022/09/15 06:40:01;;;;;;;29.07;17.60;;;;;;;;;;5050327;28;20424;-47
2022/09/15 06:42:27;;;;;;;28.93;17.70;;;;;;;;;;5051563;28;20396;-47
2022/09/15 06:44:53;;;;;;;25.30;16.00;;;;;;;;;;5033843;28;20393;-46
2022/09/15 06:47:19;;;;;;;32.20;19.70;;;;;;;;;;5031036;28;20953;-46
2022/09/15 06:49:45;;;;;;;28.77;17.13;;;;;;;;;;5046747;28;20416;-47
2022/09/15 06:52:11;;;;;;;28.90;17.33;;;;;;;;;;5050204;28;20819;-47
2022/09/15 06:54:37;;;;;;;30.47;18.40;;;;;;;;;;5035376;28;20418;-49
2022/09/15 06:57:03;;;;;;;36.03;19.43;;;;;;;;;;5030557;28;20461;-47
2022/09/15 06:59:29;;;;;;;24.43;16.60;;;;;;;;;;5044010;28;20474;-47
2022/09/15 07:01:55;;;;;;;25.03;17.17;;;;;;;;;;5050919;28;20461;-47
2022/09/15 07:04:22;;;;;;;26.47;18.23;;;;;;;;;;5037677;28;20473;-46
2022/09/15 07:06:49;;;;;;;32.33;17.97;;;;;;;;;;5033600;28;20443;-47
2022/09/15 07:09:15;;;;;;;26.70;16.77;;;;;;;;;;5046481;28;20421;-47
2022/09/15 07:11:41;;;;;;;26.97;17.33;;;;;;;;;;5055106;28;20404;-47
2022/09/15 07:14:07;;;;;;;30.50;17.27;;;;;;;;;;5044890;28;20447;-46
2022/09/15 07:16:33;;;;;;;27.23;18.17;;;;;;;;;;5034563;28;20950;-48
2022/09/15 07:19:01;;;;;;;27.17;17.83;;;;;;;;;;5044206;28;20421;-48
2022/09/15 07:21:27;;;;;;;27.73;18.33;;;;;;;;;;5054936;28;20471;-46
2022/09/15 07:23:55;;;;;;;27.33;18.10;;;;;;;;;;5046464;28;20400;-47
2022/09/15 07:26:23;;;;;;;26.30;18.07;;;;;;;;;;5034422;28;20922;-47
2022/09/15 07:28:50;;;;;;;27.07;19.80;;;;;;;;;;5035941;28;20422;-47
2022/09/15 07:31:17;;;;;;;33.87;18.57;;;;;;;;;;5035046;28;20380;-47
2022/09/15 07:33:43;;;;;;;31.73;18.80;;;;;;;;;;5040928;28;20913;-48
2022/09/15 07:36:09;;;;;;;26.73;17.50;;;;;;;;;;5054077;28;20483;-47
2022/09/15 07:38:38;;;;;;;30.63;17.83;;;;;;;;;;5052878;28;20923;-47
2022/09/15 07:41:05;;;;;;;33.13;19.13;;;;;;;;;;5054630;28;20398;-48
2022/09/15 07:43:31;;;;;;;31.20;17.73;;;;;;;;;;5049821;28;20425;-47
2022/09/15 07:45:58;;;;;;;27.67;18.43;;;;;;;;;;5034188;28;20461;-47
2022/09/15 07:48:24;;;;;;;28.07;18.37;;;;;;;;;;5035643;28;20399;-47
2022/09/15 07:50:49;;;;;;;27.73;17.67;;;;;;;;;;5034371;28;20400;-47
2022/09/15 07:53:15;;;;;;;32.17;17.93;;;;;;;;;;5036494;28;20412;-46
2022/09/15 07:55:41;;;;;;;27.70;17.87;;;;;;;;;;5053650;28;20993;-48
2022/09/15 07:58:07;;;;;;;28.33;16.87;;;;;;;;;;5044341;28;20819;-47
2022/09/15 08:00:34;;;;;;;28.07;18.23;;;;;;;;;;5034302;28;20488;-47
2022/09/15 08:02:59;;;;;;;19.70;14.83;;;;;;;;;;5042242;28;20408;-47
2022/09/15 08:05:27;;;;;;;20.80;14.10;;;;;;;;;;5053648;28;20409;-47
2022/09/15 08:07:56;;;;;;;19.33;12.50;;;;;;;;;;5048917;28;20482;-46
2022/09/15 08:10:23;;;;;;;21.70;13.60;;;;;;;;;;5042311;28;20427;-46
2022/09/15 08:12:49;;;;;;;21.77;12.37;;;;;;;;;;5054055;28;20379;-47
2022/09/15 08:15:15;;;;;;;18.43;12.40;;;;;;;;;;5051746;28;20425;-47
2022/09/15 08:17:41;;;;;;;18.17;12.50;;;;;;;;;;5052242;28;20450;-47
2022/09/15 08:20:08;;;;;;;19.90;12.20;;;;;;;;;;5050494;28;20815;-47
2022/09/15 08:22:34;;;;;;;24.93;13.13;;;;;;;;;;5034218;28;20374;-48
2022/09/15 08:25:00;;;;;;;18.53;11.10;;;;;;;;;;5034971;28;20395;-47
2022/09/15 08:27:26;;;;;;;17.17;11.30;;;;;;;;;;5033594;28;20908;-46
2022/09/15 08:29:52;;;;;;;17.67;9.57;;;;;;;;;;5034245;28;20378;-47
2022/09/15 08:32:18;;;;;;;11.20;8.80;;;;;;;;;;5034124;28;20414;-47
2022/09/15 08:34:44;;;;;;;21.37;9.90;;;;;;;;;;5033562;28;20394;-47
2022/09/15 08:37:10;;;;;;;14.13;8.73;;;;;;;;;;5053024;28;20432;-47
2022/09/15 08:39:36;;;;;;;10.10;7.70;;;;;;;;;;5053534;28;20397;-47
2022/09/15 08:42:03;;;;;;;12.97;8.10;;;;;;;;;;5035040;28;20389;-48
2022/09/15 08:44:32;;;;;;;14.00;7.80;;;;;;;;;;5033826;28;20891;-48
2022/09/15 08:47:11;;;;;;;12.10;9.03;;;;;;;;;;5050916;28;20532;-47
2022/09/15 08:49:43;;;;;;;14.50;9.20;;;;;;;;;;5053319;28;20475;-48
2022/09/15 08:52:13;;;;;;;11.87;9.57;;;;;;;;;;5040637;28;20397;-49
2022/09/15 08:54:39;;;;;;;15.50;8.97;;;;;;;;;;5053248;28;20383;-48
2022/09/15 08:57:05;;;;;;;13.73;8.27;;;;;;;;;;5039005;28;20445;-48
2022/09/15 08:59:33;;;;;;;20.37;8.53;;;;;;;;;;5033289;28;20479;-47
2022/09/15 09:02:23;;;;;;;16.83;8.40;;;;;;;;;;5048171;28;20431;-48
2022/09/15 09:04:59;;;;;;;12.03;8.30;;;;;;;;;;5053068;28;20403;-47
2022/09/15 09:07:34;;;;;;;17.43;7.93;;;;;;;;;;5051122;28;20950;-47
2022/09/15 09:10:10;;;;;;;10.93;8.00;;;;;;;;;;5052997;28;20376;-47
2022/09/15 09:12:36;;;;;;;13.90;7.40;;;;;;;;;;5033080;28;20876;-46
2022/09/15 09:15:03;;;;;;;12.77;4.90;;;;;;;;;;5032831;28;20415;-47
2022/09/15 09:17:29;;;;;;;7.40;4.43;;;;;;;;;;5051288;28;20492;-48
2022/09/15 09:19:55;;;;;;;10.80;4.93;;;;;;;;;;5053147;28;20895;-47
2022/09/15 09:22:23;;;;;;;9.47;3.90;;;;;;;;;;5034096;28;20430;-49
2022/09/15 09:24:54;;;;;;;6.03;4.43;;;;;;;;;;5032585;28;20380;-47
2022/09/15 09:27:23;;;;;;;5.00;4.50;;;;;;;;;;5050042;28;20474;-47
2022/09/15 09:29:53;;;;;;;9.13;3.23;;;;;;;;;;5052028;28;20929;-48
2022/09/15 09:32:23;;;;;;;3.40;2.37;;;;;;;;;;5034860;28;20785;-48
2022/09/15 09:34:54;;;;;;;7.07;2.37;;;;;;;;;;5032446;28;20485;-48
2022/09/15 09:37:20;;;;;;;2.57;1.83;;;;;;;;;;5043536;28;20503;-47
2022/09/15 09:39:47;;;;;;;6.70;2.23;;;;;;;;;;5032558;28;20407;-49
2022/09/15 09:42:17;;;;;;;5.03;1.93;;;;;;;;;;5048133;28;20423;-48
2022/09/15 09:44:43;;;;;;;9.90;2.67;;;;;;;;;;5052142;28;20417;-47
2022/09/15 09:47:11;;;;;;;2.93;2.00;;;;;;;;;;5050241;28;20438;-48
2022/09/15 09:49:43;;;;;;;5.93;2.00;;;;;;;;;;5052106;28;20408;-47
2022/09/15 09:52:09;;;;;;;5.37;1.77;;;;;;;;;;5038007;28;20436;-48
2022/09/15 09:54:35;;;;;;;2.83;2.13;;;;;;;;;;5031910;28;20410;-47
2022/09/15 09:57:20;;;;;;;2.40;1.83;;;;;;;;;;5044848;28;20885;-47
2022/09/15 09:59:50;;;;;;;12.73;2.77;;;;;;;;;;5050814;28;20928;-48
2022/09/15 10:02:21;;;;;;;3.20;1.70;;;;;;;;;;5050048;28;20508;-48
2022/09/15 10:04:49;;;;;;;2.63;2.27;;;;;;;;;;5051841;28;20460;-48
2022/09/15 10:07:16;;;;;;;3.27;1.97;;;;;;;;;;5032710;28;20799;-47
2022/09/15 10:09:51;;;;;;;10.13;2.27;;;;;;;;;;5031959;28;20451;-47
2022/09/15 10:12:20;;;;;;;6.10;2.10;;;;;;;;;;5048795;28;20426;-48
2022/09/15 10:14:50;;;;;;;6.37;2.57;;;;;;;;;;5051334;28;20410;-48
2022/09/15 10:17:18;;;;;;;3.50;2.60;;;;;;;;;;5033863;28;20521;-47
2022/09/15 10:19:53;;;;;;;4.37;1.70;;;;;;;;;;5031980;28;20467;-47
2022/09/15 10:22:38;;;;;;;5.40;2.00;;;;;;;;;;5049021;28;20384;-47
2022/09/15 10:25:28;;;;;;;4.90;2.67;;;;;;;;;;5051279;28;20767;-47
2022/09/15 10:28:14;;;;;;;2.30;1.83;;;;;;;;;;5031679;28;20418;-48
2022/09/15 10:30:57;;;;;;;6.03;2.23;;;;;;;;;;5032976;28;20444;-46
2022/09/15 10:33:24;;;;;;;3.50;2.00;;;;;;;;;;5032107;28;20399;-48
2022/09/15 10:35:50;;;;;;;8.17;2.07;;;;;;;;;;5035784;28;20906;-47
2022/09/15 10:38:19;;;;;;;5.17;1.97;;;;;;;;;;5051724;28;20455;-47
2022/09/15 10:40:55;;;;;;;3.80;2.20;;;;;;;;;;5046763;28;20450;-48
2022/09/15 10:43:24;;;;;;;6.47;2.17;;;;;;;;;;5036996;28;20470;-47
2022/09/15 10:46:00;;;;;;;5.80;1.90;;;;;;;;;;5046365;28;20445;-48
2022/09/15 10:48:35;;;;;;;2.20;1.67;;;;;;;;;;5031354;28;20404;-48
2022/09/15 10:51:17;;;;;;;3.70;1.83;;;;;;;;;;5037502;28;20402;-47
2022/09/15 10:53:43;;;;;;;5.20;1.90;;;;;;;;;;5051209;28;20408;-47
2022/09/15 10:56:21;;;;;;;4.00;1.93;;;;;;;;;;5042964;28;20511;-47
2022/09/15 10:58:54;;;;;;;7.13;2.23;;;;;;;;;;5030749;28;20738;-46
2022/09/15 11:01:20;;;;;;;4.37;1.80;;;;;;;;;;5039505;28;20398;-46
2022/09/15 11:03:49;;;;;;;8.87;1.90;;;;;;;;;;5051067;28;20408;-46
2022/09/15 11:06:24;;;;;;;5.97;2.20;;;;;;;;;;5048526;28;20893;-46
2022/09/15 11:08:50;;;;;;;7.63;2.00;;;;;;;;;;5048990;28;20898;-47
2022/09/15 11:11:31;;;;;;;3.00;2.27;;;;;;;;;;5053935;28;20435;-47
2022/09/15 11:14:08;;;;;;;1.90;1.70;;;;;;;;;;5047997;28;20510;-46
2022/09/15 11:16:34;;;;;;;8.30;2.43;;;;;;;;;;5051134;28;20596;-47
2022/09/15 11:19:03;;;;;;;7.53;2.33;;;;;;;;;;5043920;28;20924;-47
2022/09/15 11:21:34;;;;;;;11.50;2.80;;;;;;;;;;5041106;28;20469;-47
2022/09/15 11:24:00;;;;;;;5.00;2.30;;;;;;;;;;5042976;28;20406;-47
2022/09/15 11:26:32;;;;;;;9.17;2.37;;;;;;;;;;5030780;28;20940;-47
2022/09/15 11:29:02;;;;;;;6.80;3.20;;;;;;;;;;5039289;28;20419;-48
2022/09/15 11:31:35;;;;;;;6.93;2.80;;;;;;;;;;5041597;28;20997;-47
2022/09/15 11:34:05;;;;;;;5.33;2.40;;;;;;;;;;5039671;28;20966;-47
2022/09/15 11:36:40;;;;;;;5.03;2.53;;;;;;;;;;5050531;28;20471;-46
2022/09/15 11:39:35;;;;;;;7.53;2.77;;;;;;;;;;5050194;28;20453;-46
2022/09/15 11:42:07;;;;;;;5.10;2.77;;;;;;;;;;5031421;28;20505;-47
2022/09/15 11:44:37;;;;;;;8.20;2.90;;;;;;;;;;5031800;28;20419;-46
2022/09/15 11:47:03;;;;;;;7.40;2.70;;;;;;;;;;5030669;28;20510;-47
2022/09/15 11:49:29;;;;;;;4.23;2.30;;;;;;;;;;5048714;28;20501;-47
2022/09/15 11:51:58;;;;;;;4.00;2.20;;;;;;;;;;5043202;28;20421;-48
2022/09/15 11:54:44;;;;;;;3.00;2.33;;;;;;;;;;5041529;28;20413;-47
2022/09/15 11:57:16;;;;;;;5.00;2.27;;;;;;;;;;5052105;28;20470;-47
2022/09/15 11:59:54;;;;;;;7.00;4.30;;;;;;;;;;5054015;28;20471;-48
2022/09/15 12:02:28;;;;;;;5.73;2.13;;;;;;;;;;5054102;28;20763;-46
2022/09/15 12:05:13;;;;;;;2.77;1.73;;;;;;;;;;5034255;28;20424;-47
2022/09/15 12:08:02;;;;;;;2.90;1.70;;;;;;;;;;5036805;28;20424;-47
2022/09/15 12:10:36;;;;;;;6.00;1.80;;;;;;;;;;5051161;28;20424;-47
2022/09/15 12:13:02;;;;;;;2.87;1.30;;;;;;;;;;5048780;28;20389;-48
2022/09/15 12:15:29;;;;;;;6.27;1.90;;;;;;;;;;5033165;28;20904;-48
2022/09/15 12:18:14;;;;;;;6.13;2.03;;;;;;;;;;5038043;28;20754;-48
2022/09/15 12:20:39;;;;;;;5.43;1.80;;;;;;;;;;5051683;28;20403;-48
2022/09/15 12:23:20;;;;;;;3.83;1.90;;;;;;;;;;5034141;28;20400;-48
2022/09/15 12:26:04;;;;;;;6.43;2.37;;;;;;;;;;5034217;28;20506;-48
2022/09/15 12:28:37;;;;;;;4.90;1.83;;;;;;;;;;5041508;28;20386;-48
2022/09/15 12:31:32;;;;;;;2.23;1.90;;;;;;;;;;5049436;28;20499;-48
2022/09/15 12:34:00;;;;;;;7.73;2.17;;;;;;;;;;5033118;28;20720;-48
2022/09/15 12:36:30;;;;;;;7.30;2.73;;;;;;;;;;5038876;28;20472;-48
2022/09/15 12:38:57;;;;;;;4.40;2.10;;;;;;;;;;5053530;28;20773;-48
2022/09/15 12:41:23;;;;;;;3.77;1.67;;;;;;;;;;5047288;28;20420;-47
2022/09/15 12:43:56;;;;;;;13.40;3.17;;;;;;;;;;5033688;28;20378;-47
2022/09/15 12:46:23;;;;;;;5.53;2.40;;;;;;;;;;5035047;28;20906;-48
2022/09/15 12:48:49;;;;;;;8.53;2.37;;;;;;;;;;5042390;28;20778;-48
2022/09/15 12:51:23;;;;;;;2.93;1.90;;;;;;;;;;5036712;28;20419;-47
2022/09/15 12:53:51;;;;;;;4.63;2.13;;;;;;;;;;5040981;28;20498;-48
2022/09/15 12:56:22;;;;;;;6.60;2.20;;;;;;;;;;5032549;28;20428;-48
2022/09/15 12:58:49;;;;;;;3.93;2.20;;;;;;;;;;5033772;28;20412;-51
2022/09/15 13:01:18;;;;;;;4.37;2.10;;;;;;;;;;5034357;28;20489;-50
2022/09/15 13:03:44;;;;;;;6.33;2.30;;;;;;;;;;5032519;28;20424;-51
2022/09/15 13:06:20;;;;;;;5.10;2.50;;;;;;;;;;5037032;28;20442;-52
2022/09/15 13:09:09;;;;;;;4.47;2.33;;;;;;;;;;5053548;28;20463;-50
2022/09/15 13:11:43;;;;;;;5.17;2.57;;;;;;;;;;5040426;28;20518;-51
2022/09/15 13:14:13;;;;;;;5.10;2.10;;;;;;;;;;5033028;28;20419;-50
2022/09/15 13:16:39;;;;;;;5.23;1.73;;;;;;;;;;5041022;28;20776;-50
2022/09/15 13:19:05;;;;;;;6.00;2.30;;;;;;;;;;5052846;28;20864;-51
2022/09/15 13:21:33;;;;;;;3.83;2.77;;;;;;;;;;5044336;28;20444;-51
2022/09/15 13:24:02;;;;;;;3.83;2.30;;;;;;;;;;5033384;28;20811;-51
2022/09/15 13:26:29;;;;;;;3.70;1.87;;;;;;;;;;5051728;28;20493;-49
2022/09/15 13:28:56;;;;;;;5.60;2.20;;;;;;;;;;5052685;28;20404;-51
2022/09/15 13:31:41;;;;;;;10.10;2.53;;;;;;;;;;5051384;28;20436;-52
2022/09/15 13:34:25;;;;;;;3.80;2.50;;;;;;;;;;5052010;28;20436;-52
2022/09/15 13:36:59;;;;;;;3.30;2.70;;;;;;;;;;5031815;28;20461;-48
2022/09/15 13:39:29;;;;;;;7.57;2.43;;;;;;;;;;5033998;28;20453;-47
2022/09/15 13:42:17;;;;;;;3.83;2.40;;;;;;;;;;5032650;28;20461;-51
2022/09/15 13:44:43;;;;;;;2.63;2.43;;;;;;;;;;5036789;28;20410;-50
2022/09/15 13:47:09;;;;;;;5.20;2.53;;;;;;;;;;5051773;28;20433;-47
2022/09/15 13:49:38;;;;;;;5.43;2.43;;;;;;;;;;5050985;28;20427;-47
2022/09/15 13:52:21;;;;;;;6.63;2.83;;;;;;;;;;5052421;28;20452;-47
2022/09/15 13:55:14;;;;;;;5.23;2.37;;;;;;;;;;5046244;28;20459;-48
2022/09/15 13:57:41;;;;;;;4.23;2.37;;;;;;;;;;5029533;28;20866;-48
2022/09/15 14:00:15;;;;;;;2.57;2.37;;;;;;;;;;5039774;28;20488;-47
2022/09/15 14:02:46;;;;;;;6.23;2.70;;;;;;;;;;5050778;28;20433;-47
2022/09/15 14:05:13;;;;;;;8.03;3.30;;;;;;;;;;5043879;28;20420;-47
2022/09/15 14:07:39;;;;;;;9.13;2.70;;;;;;;;;;5031262;28;20469;-48
2022/09/15 14:10:06;;;;;;;8.20;2.73;;;;;;;;;;5038997;28;20453;-47
2022/09/15 14:12:35;;;;;;;6.63;2.37;;;;;;;;;;5052136;28;20693;-48
2022/09/15 14:15:04;;;;;;;6.80;2.97;;;;;;;;;;5050223;28;20415;-45
2022/09/15 14:17:31;;;;;;;2.90;2.10;;;;;;;;;;5051285;28;20493;-49
2022/09/15 14:19:59;;;;;;;7.03;2.07;;;;;;;;;;5047073;28;20936;-46
2022/09/15 14:22:27;;;;;;;8.17;2.10;;;;;;;;;;5032039;28;20825;-54
2022/09/15 14:24:53;;;;;;;4.00;1.90;;;;;;;;;;5034585;28;20369;-48
2022/09/15 14:27:23;;;;;;;2.53;2.10;;;;;;;;;;5051029;28;20463;-48
2022/09/15 14:29:53;;;;;;;4.97;2.43;;;;;;;;;;5049901;28;20879;-46
2022/09/15 14:32:19;;;;;;;2.67;1.97;;;;;;;;;;5051803;28;20399;-47
2022/09/15 14:34:46;;;;;;;2.40;2.00;;;;;;;;;;5049154;28;20386;-46
2022/09/15 14:37:18;;;;;;;6.87;2.20;;;;;;;;;;5030982;28;21129;-47
2022/09/15 14:39:57;;;;;;;3.90;1.93;;;;;;;;;;5032398;28;20461;-47